sensor_id;sensor_type;location;lat;lon;timestamp;temperature;humidity
10057;DHT22;5068;51.286;7.518;2024-03-02T00:00:40;6.10;57.80
10057;DHT22;5068;51.286;7.518;2024-03-02T00:02:13;6.10;57.70
10057;DHT22;5068;51.286;7.518;2024-03-02T00:03:46;6.10;57.80
10057;DHT22;5068;51.286;7.518;2024-03-02T00:05:22;6.20;57.90
10057;DHT22;5068;51.286;7.518;2024-03-02T00:06:54;6.20;57.90
10057;DHT22;5068;51.286;7.518;2024-03-02T00:08:29;6.20;57.90
10057;DHT22;5068;51.286;7.518;2024-03-02T00:10:08;6.20;57.80
10057;DHT22;5068;51.286;7.518;2024-03-02T00:11:43;6.20;57.90
10057;DHT22;5068;51.286;7.518;2024-03-02T00:13:15;6.20;57.80
10057;DHT22;5068;51.286;7.518;2024-03-02T00:14:49;6.20;57.70
10057;DHT22;5068;51.286;7.518;2024-03-02T00:16:22;6.20;57.70
10057;DHT22;5068;51.286;7.518;2024-03-02T00:17:56;6.20;57.70
10057;DHT22;5068;51.286;7.518;2024-03-02T00:19:30;6.20;57.70
10057;DHT22;5068;51.286;7.518;2024-03-02T00:21:06;6.30;57.70
10057;DHT22;5068;51.286;7.518;2024-03-02T00:22:41;6.20;57.70
10057;DHT22;5068;51.286;7.518;2024-03-02T00:24:20;6.20;57.60
10057;DHT22;5068;51.286;7.518;2024-03-02T00:25:54;6.20;57.70
10057;DHT22;5068;51.286;7.518;2024-03-02T00:27:28;6.20;57.60
10057;DHT22;5068;51.286;7.518;2024-03-02T00:29:02;6.20;57.60
10057;DHT22;5068;51.286;7.518;2024-03-02T00:30:55;6.20;57.60
10057;DHT22;5068;51.286;7.518;2024-03-02T00:32:29;6.20;57.70
10057;DHT22;5068;51.286;7.518;2024-03-02T00:34:05;6.20;57.50
10057;DHT22;5068;51.286;7.518;2024-03-02T00:35:39;6.20;57.50
10057;DHT22;5068;51.286;7.518;2024-03-02T00:37:14;6.20;57.60
10057;DHT22;5068;51.286;7.518;2024-03-02T00:38:49;6.10;57.50
10057;DHT22;5068;51.286;7.518;2024-03-02T00:40:27;6.10;57.60
10057;DHT22;5068;51.286;7.518;2024-03-02T00:42:01;6.20;57.70
10057;DHT22;5068;51.286;7.518;2024-03-02T00:43:47;6.10;57.60
10057;DHT22;5068;51.286;7.518;2024-03-02T00:45:22;6.10;57.70
10057;DHT22;5068;51.286;7.518;2024-03-02T00:46:58;6.10;57.50
10057;DHT22;5068;51.286;7.518;2024-03-02T00:48:33;6.10;57.50
10057;DHT22;5068;51.286;7.518;2024-03-02T00:50:08;6.10;57.50
10057;DHT22;5068;51.286;7.518;2024-03-02T00:51:54;6.00;57.50
10057;DHT22;5068;51.286;7.518;2024-03-02T00:53:29;6.00;57.50
10057;DHT22;5068;51.286;7.518;2024-03-02T00:55:03;6.00;57.60
10057;DHT22;5068;51.286;7.518;2024-03-02T00:56:37;6.00;57.50
10057;DHT22;5068;51.286;7.518;2024-03-02T00:58:11;6.00;57.40
10057;DHT22;5068;51.286;7.518;2024-03-02T00:59:43;6.00;57.40
10057;DHT22;5068;51.286;7.518;2024-03-02T01:01:18;5.90;57.40
10057;DHT22;5068;51.286;7.518;2024-03-02T01:02:51;5.90;57.40
10057;DHT22;5068;51.286;7.518;2024-03-02T01:04:25;5.90;57.40
10057;DHT22;5068;51.286;7.518;2024-03-02T01:05:58;5.90;57.50
10057;DHT22;5068;51.286;7.518;2024-03-02T01:07:31;5.80;57.40
10057;DHT22;5068;51.286;7.518;2024-03-02T01:09:05;5.80;57.50
10057;DHT22;5068;51.286;7.518;2024-03-02T01:10:39;5.80;57.60
10057;DHT22;5068;51.286;7.518;2024-03-02T01:12:11;5.80;57.70
10057;DHT22;5068;51.286;7.518;2024-03-02T01:13:45;5.70;57.50
10057;DHT22;5068;51.286;7.518;2024-03-02T01:15:18;5.70;57.50
10057;DHT22;5068;51.286;7.518;2024-03-02T01:16:51;5.70;57.60
10057;DHT22;5068;51.286;7.518;2024-03-02T01:18:25;5.70;57.60
10057;DHT22;5068;51.286;7.518;2024-03-02T01:19:58;5.60;57.60
10057;DHT22;5068;51.286;7.518;2024-03-02T01:21:31;5.60;57.60
10057;DHT22;5068;51.286;7.518;2024-03-02T01:23:05;5.50;57.50
10057;DHT22;5068;51.286;7.518;2024-03-02T01:24:39;5.60;57.80
10057;DHT22;5068;51.286;7.518;2024-03-02T01:26:13;5.50;57.70
10057;DHT22;5068;51.286;7.518;2024-03-02T01:27:45;5.50;57.80
10057;DHT22;5068;51.286;7.518;2024-03-02T01:29:21;5.50;57.90
10057;DHT22;5068;51.286;7.518;2024-03-02T01:30:55;5.40;57.90
10057;DHT22;5068;51.286;7.518;2024-03-02T01:32:28;5.40;58.00
10057;DHT22;5068;51.286;7.518;2024-03-02T01:34:01;5.40;58.00
10057;DHT22;5068;51.286;7.518;2024-03-02T01:35:34;5.40;58.10
10057;DHT22;5068;51.286;7.518;2024-03-02T01:37:07;5.30;59.00
10057;DHT22;5068;51.286;7.518;2024-03-02T01:38:40;5.30;59.00
10057;DHT22;5068;51.286;7.518;2024-03-02T01:40:15;5.30;59.00
10057;DHT22;5068;51.286;7.518;2024-03-02T01:41:48;5.30;59.10
10057;DHT22;5068;51.286;7.518;2024-03-02T01:43:21;5.20;58.90
10057;DHT22;5068;51.286;7.518;2024-03-02T01:44:54;5.20;58.80
10057;DHT22;5068;51.286;7.518;2024-03-02T01:46:28;5.20;59.00
10057;DHT22;5068;51.286;7.518;2024-03-02T01:48:01;5.20;59.00
10057;DHT22;5068;51.286;7.518;2024-03-02T01:49:34;5.20;59.00
10057;DHT22;5068;51.286;7.518;2024-03-02T01:51:10;5.20;59.00
10057;DHT22;5068;51.286;7.518;2024-03-02T01:52:44;5.10;58.90
10057;DHT22;5068;51.286;7.518;2024-03-02T01:54:18;5.10;59.00
10057;DHT22;5068;51.286;7.518;2024-03-02T01:55:53;5.10;59.10
10057;DHT22;5068;51.286;7.518;2024-03-02T01:57:26;5.10;59.20
10057;DHT22;5068;51.286;7.518;2024-03-02T01:58:59;5.10;59.10
10057;DHT22;5068;51.286;7.518;2024-03-02T02:00:32;5.00;59.00
10057;DHT22;5068;51.286;7.518;2024-03-02T02:02:04;5.00;59.10
10057;DHT22;5068;51.286;7.518;2024-03-02T02:03:38;5.00;59.30
10057;DHT22;5068;51.286;7.518;2024-03-02T02:05:13;4.90;59.20
10057;DHT22;5068;51.286;7.518;2024-03-02T02:06:46;4.90;59.40
10057;DHT22;5068;51.286;7.518;2024-03-02T02:08:19;4.90;59.40
10057;DHT22;5068;51.286;7.518;2024-03-02T02:09:52;4.90;59.50
10057;DHT22;5068;51.286;7.518;2024-03-02T02:11:30;4.80;59.40
10057;DHT22;5068;51.286;7.518;2024-03-02T02:13:03;4.80;59.60
10057;DHT22;5068;51.286;7.518;2024-03-02T02:14:36;4.80;59.70
10057;DHT22;5068;51.286;7.518;2024-03-02T02:16:11;4.80;60.00
10057;DHT22;5068;51.286;7.518;2024-03-02T02:17:44;4.80;59.80
10057;DHT22;5068;51.286;7.518;2024-03-02T02:19:17;4.80;59.50
10057;DHT22;5068;51.286;7.518;2024-03-02T02:20:51;4.70;59.50
10057;DHT22;5068;51.286;7.518;2024-03-02T02:22:25;4.70;59.60
10057;DHT22;5068;51.286;7.518;2024-03-02T02:23:58;4.70;59.60
10057;DHT22;5068;51.286;7.518;2024-03-02T02:25:30;4.70;59.60
10057;DHT22;5068;51.286;7.518;2024-03-02T02:27:04;4.70;59.70
10057;DHT22;5068;51.286;7.518;2024-03-02T02:28:36;4.70;59.70
10057;DHT22;5068;51.286;7.518;2024-03-02T02:30:11;4.60;59.60
10057;DHT22;5068;51.286;7.518;2024-03-02T02:31:44;4.70;59.70
10057;DHT22;5068;51.286;7.518;2024-03-02T02:33:18;4.60;59.60
10057;DHT22;5068;51.286;7.518;2024-03-02T02:34:52;4.60;60.00
10057;DHT22;5068;51.286;7.518;2024-03-02T02:36:25;4.60;60.40
10057;DHT22;5068;51.286;7.518;2024-03-02T02:37:59;4.60;59.70
10057;DHT22;5068;51.286;7.518;2024-03-02T02:39:32;4.60;59.70
10057;DHT22;5068;51.286;7.518;2024-03-02T02:41:05;4.60;59.90
10057;DHT22;5068;51.286;7.518;2024-03-02T02:42:39;4.50;59.80
10057;DHT22;5068;51.286;7.518;2024-03-02T02:44:11;4.50;59.80
10057;DHT22;5068;51.286;7.518;2024-03-02T02:45:45;4.50;59.80
10057;DHT22;5068;51.286;7.518;2024-03-02T02:47:18;4.50;59.80
10057;DHT22;5068;51.286;7.518;2024-03-02T02:48:51;4.50;59.90
10057;DHT22;5068;51.286;7.518;2024-03-02T02:50:25;4.50;60.00
10057;DHT22;5068;51.286;7.518;2024-03-02T02:51:58;4.40;59.90
10057;DHT22;5068;51.286;7.518;2024-03-02T02:53:32;4.40;59.90
10057;DHT22;5068;51.286;7.518;2024-03-02T02:55:08;4.40;60.00
10057;DHT22;5068;51.286;7.518;2024-03-02T02:56:43;4.40;60.10
10057;DHT22;5068;51.286;7.518;2024-03-02T02:58:15;4.30;59.90
10057;DHT22;5068;51.286;7.518;2024-03-02T02:59:49;4.40;60.00
10057;DHT22;5068;51.286;7.518;2024-03-02T03:01:21;4.30;59.90
10057;DHT22;5068;51.286;7.518;2024-03-02T03:02:55;4.30;60.00
10057;DHT22;5068;51.286;7.518;2024-03-02T03:04:27;4.20;60.00
10057;DHT22;5068;51.286;7.518;2024-03-02T03:06:01;4.20;60.10
10057;DHT22;5068;51.286;7.518;2024-03-02T03:07:34;4.20;60.00
10057;DHT22;5068;51.286;7.518;2024-03-02T03:09:09;4.20;60.00
10057;DHT22;5068;51.286;7.518;2024-03-02T03:10:43;4.20;60.00
10057;DHT22;5068;51.286;7.518;2024-03-02T03:12:16;4.10;59.80
10057;DHT22;5068;51.286;7.518;2024-03-02T03:13:49;4.10;59.80
10057;DHT22;5068;51.286;7.518;2024-03-02T03:15:23;4.10;59.80
10057;DHT22;5068;51.286;7.518;2024-03-02T03:16:55;4.10;59.90
10057;DHT22;5068;51.286;7.518;2024-03-02T03:18:29;4.00;59.90
10057;DHT22;5068;51.286;7.518;2024-03-02T03:20:01;4.00;59.90
10057;DHT22;5068;51.286;7.518;2024-03-02T03:21:36;4.00;60.00
10057;DHT22;5068;51.286;7.518;2024-03-02T03:23:08;4.00;59.90
10057;DHT22;5068;51.286;7.518;2024-03-02T03:24:43;3.90;59.80
10057;DHT22;5068;51.286;7.518;2024-03-02T03:26:15;3.90;59.90
10057;DHT22;5068;51.286;7.518;2024-03-02T03:27:48;3.90;60.00
10057;DHT22;5068;51.286;7.518;2024-03-02T03:29:21;3.90;60.10
10057;DHT22;5068;51.286;7.518;2024-03-02T03:30:54;3.80;60.10
10057;DHT22;5068;51.286;7.518;2024-03-02T03:32:27;3.80;60.00
10057;DHT22;5068;51.286;7.518;2024-03-02T03:34:00;3.70;60.00
10057;DHT22;5068;51.286;7.518;2024-03-02T03:35:32;3.70;61.00
10057;DHT22;5068;51.286;7.518;2024-03-02T03:37:06;3.70;60.20
10057;DHT22;5068;51.286;7.518;2024-03-02T03:38:38;3.60;60.20
10057;DHT22;5068;51.286;7.518;2024-03-02T03:40:13;3.60;60.30
10057;DHT22;5068;51.286;7.518;2024-03-02T03:41:46;3.60;60.40
10057;DHT22;5068;51.286;7.518;2024-03-02T03:43:19;3.60;60.30
10057;DHT22;5068;51.286;7.518;2024-03-02T03:44:52;3.60;60.50
10057;DHT22;5068;51.286;7.518;2024-03-02T03:46:25;3.50;60.50
10057;DHT22;5068;51.286;7.518;2024-03-02T03:47:58;3.50;60.50
10057;DHT22;5068;51.286;7.518;2024-03-02T03:49:30;3.40;60.50
10057;DHT22;5068;51.286;7.518;2024-03-02T03:51:04;3.40;60.60
10057;DHT22;5068;51.286;7.518;2024-03-02T03:52:36;3.40;60.70
10057;DHT22;5068;51.286;7.518;2024-03-02T03:54:09;3.30;60.70
10057;DHT22;5068;51.286;7.518;2024-03-02T03:55:44;3.30;60.90
10057;DHT22;5068;51.286;7.518;2024-03-02T03:57:18;3.30;61.00
10057;DHT22;5068;51.286;7.518;2024-03-02T03:58:50;3.20;61.10
10057;DHT22;5068;51.286;7.518;2024-03-02T04:00:24;3.20;61.30
10057;DHT22;5068;51.286;7.518;2024-03-02T04:01:56;3.20;61.40
10057;DHT22;5068;51.286;7.518;2024-03-02T04:03:30;3.20;61.60
10057;DHT22;5068;51.286;7.518;2024-03-02T04:05:03;3.20;61.80
10057;DHT22;5068;51.286;7.518;2024-03-02T04:06:40;3.20;62.00
10057;DHT22;5068;51.286;7.518;2024-03-02T04:08:14;3.20;62.10
10057;DHT22;5068;51.286;7.518;2024-03-02T04:09:47;3.20;62.20
10057;DHT22;5068;51.286;7.518;2024-03-02T04:11:21;3.20;62.30
10057;DHT22;5068;51.286;7.518;2024-03-02T04:12:55;3.20;62.60
10057;DHT22;5068;51.286;7.518;2024-03-02T04:14:27;3.10;62.80
10057;DHT22;5068;51.286;7.518;2024-03-02T04:16:00;3.10;62.70
10057;DHT22;5068;51.286;7.518;2024-03-02T04:17:33;3.10;62.20
10057;DHT22;5068;51.286;7.518;2024-03-02T04:19:08;3.20;62.60
10057;DHT22;5068;51.286;7.518;2024-03-02T04:20:40;3.20;62.70
10057;DHT22;5068;51.286;7.518;2024-03-02T04:22:13;3.10;62.70
10057;DHT22;5068;51.286;7.518;2024-03-02T04:23:56;3.10;62.80
10057;DHT22;5068;51.286;7.518;2024-03-02T04:25:31;3.10;62.70
10057;DHT22;5068;51.286;7.518;2024-03-02T04:27:05;3.10;62.90
10057;DHT22;5068;51.286;7.518;2024-03-02T04:28:39;3.20;63.20
10057;DHT22;5068;51.286;7.518;2024-03-02T04:30:12;3.20;63.20
10057;DHT22;5068;51.286;7.518;2024-03-02T04:31:46;3.20;63.30
10057;DHT22;5068;51.286;7.518;2024-03-02T04:33:18;3.20;63.30
10057;DHT22;5068;51.286;7.518;2024-03-02T04:34:51;3.20;63.40
10057;DHT22;5068;51.286;7.518;2024-03-02T04:36:24;3.20;63.30
10057;DHT22;5068;51.286;7.518;2024-03-02T04:37:57;3.20;64.30
10057;DHT22;5068;51.286;7.518;2024-03-02T04:39:30;3.20;63.50
10057;DHT22;5068;51.286;7.518;2024-03-02T04:41:04;3.30;63.70
10057;DHT22;5068;51.286;7.518;2024-03-02T04:42:39;3.20;63.80
10057;DHT22;5068;51.286;7.518;2024-03-02T04:44:13;3.20;63.80
10057;DHT22;5068;51.286;7.518;2024-03-02T04:45:45;3.30;63.90
10057;DHT22;5068;51.286;7.518;2024-03-02T04:47:19;3.30;63.90
10057;DHT22;5068;51.286;7.518;2024-03-02T04:48:51;3.30;63.90
10057;DHT22;5068;51.286;7.518;2024-03-02T04:50:28;3.30;64.00
10057;DHT22;5068;51.286;7.518;2024-03-02T04:52:01;3.30;64.00
10057;DHT22;5068;51.286;7.518;2024-03-02T04:53:34;3.40;64.10
10057;DHT22;5068;51.286;7.518;2024-03-02T04:55:07;3.40;64.20
10057;DHT22;5068;51.286;7.518;2024-03-02T04:56:57;3.40;64.20
10057;DHT22;5068;51.286;7.518;2024-03-02T04:58:32;3.40;64.30
10057;DHT22;5068;51.286;7.518;2024-03-02T05:00:06;3.50;64.40
10057;DHT22;5068;51.286;7.518;2024-03-02T05:01:40;3.50;64.60
10057;DHT22;5068;51.286;7.518;2024-03-02T05:03:14;3.50;64.60
10057;DHT22;5068;51.286;7.518;2024-03-02T05:04:47;3.50;64.70
10057;DHT22;5068;51.286;7.518;2024-03-02T05:06:20;3.50;64.60
10057;DHT22;5068;51.286;7.518;2024-03-02T05:07:53;3.60;64.60
10057;DHT22;5068;51.286;7.518;2024-03-02T05:09:26;3.60;64.60
10057;DHT22;5068;51.286;7.518;2024-03-02T05:11:00;3.60;64.60
10057;DHT22;5068;51.286;7.518;2024-03-02T05:12:53;3.60;64.60
10057;DHT22;5068;51.286;7.518;2024-03-02T05:14:33;3.70;64.60
10057;DHT22;5068;51.286;7.518;2024-03-02T05:16:05;3.60;64.40
10057;DHT22;5068;51.286;7.518;2024-03-02T05:17:39;3.70;64.40
10057;DHT22;5068;51.286;7.518;2024-03-02T05:19:12;3.70;64.40
10057;DHT22;5068;51.286;7.518;2024-03-02T05:20:45;3.70;64.20
10057;DHT22;5068;51.286;7.518;2024-03-02T05:22:18;3.70;64.10
10057;DHT22;5068;51.286;7.518;2024-03-02T05:23:51;3.70;64.10
10057;DHT22;5068;51.286;7.518;2024-03-02T05:25:23;3.70;64.10
10057;DHT22;5068;51.286;7.518;2024-03-02T05:26:57;3.70;64.00
10057;DHT22;5068;51.286;7.518;2024-03-02T05:28:29;3.70;63.90
10057;DHT22;5068;51.286;7.518;2024-03-02T05:30:05;3.70;63.90
10057;DHT22;5068;51.286;7.518;2024-03-02T05:31:39;3.70;63.90
10057;DHT22;5068;51.286;7.518;2024-03-02T05:33:12;3.70;63.70
10057;DHT22;5068;51.286;7.518;2024-03-02T05:34:45;3.70;63.70
10057;DHT22;5068;51.286;7.518;2024-03-02T05:36:19;3.70;63.70
10057;DHT22;5068;51.286;7.518;2024-03-02T05:37:52;3.70;63.70
10057;DHT22;5068;51.286;7.518;2024-03-02T05:39:26;3.70;63.80
10057;DHT22;5068;51.286;7.518;2024-03-02T05:40:58;3.70;63.80
10057;DHT22;5068;51.286;7.518;2024-03-02T05:42:32;3.70;63.70
10057;DHT22;5068;51.286;7.518;2024-03-02T05:44:04;3.70;63.60
10057;DHT22;5068;51.286;7.518;2024-03-02T05:45:39;3.70;63.60
10057;DHT22;5068;51.286;7.518;2024-03-02T05:47:12;3.80;63.70
10057;DHT22;5068;51.286;7.518;2024-03-02T05:48:45;3.80;63.60
10057;DHT22;5068;51.286;7.518;2024-03-02T05:50:18;3.80;63.70
10057;DHT22;5068;51.286;7.518;2024-03-02T05:51:52;3.70;64.30
10057;DHT22;5068;51.286;7.518;2024-03-02T05:53:24;3.70;63.40
10057;DHT22;5068;51.286;7.518;2024-03-02T05:54:58;3.80;63.40
10057;DHT22;5068;51.286;7.518;2024-03-02T05:56:31;3.70;63.40
10057;DHT22;5068;51.286;7.518;2024-03-02T05:58:04;3.70;63.40
10057;DHT22;5068;51.286;7.518;2024-03-02T05:59:52;3.70;63.40
10057;DHT22;5068;51.286;7.518;2024-03-02T06:01:27;3.70;63.10
10057;DHT22;5068;51.286;7.518;2024-03-02T06:03:01;3.70;63.40
10057;DHT22;5068;51.286;7.518;2024-03-02T06:04:34;3.70;63.30
10057;DHT22;5068;51.286;7.518;2024-03-02T06:06:08;3.70;63.20
10057;DHT22;5068;51.286;7.518;2024-03-02T06:07:41;3.70;63.30
10057;DHT22;5068;51.286;7.518;2024-03-02T06:09:15;3.70;63.40
10057;DHT22;5068;51.286;7.518;2024-03-02T06:10:48;3.70;63.20
10057;DHT22;5068;51.286;7.518;2024-03-02T06:12:21;3.70;63.30
10057;DHT22;5068;51.286;7.518;2024-03-02T06:13:57;3.70;63.30
10057;DHT22;5068;51.286;7.518;2024-03-02T06:15:29;3.70;63.30
10057;DHT22;5068;51.286;7.518;2024-03-02T06:17:04;3.70;63.30
10057;DHT22;5068;51.286;7.518;2024-03-02T06:18:37;3.70;63.30
10057;DHT22;5068;51.286;7.518;2024-03-02T06:20:11;3.70;63.40
10057;DHT22;5068;51.286;7.518;2024-03-02T06:21:44;3.70;63.30
10057;DHT22;5068;51.286;7.518;2024-03-02T06:23:17;3.70;63.30
10057;DHT22;5068;51.286;7.518;2024-03-02T06:24:50;3.70;63.30
10057;DHT22;5068;51.286;7.518;2024-03-02T06:26:23;3.60;63.20
10057;DHT22;5068;51.286;7.518;2024-03-02T06:27:57;3.60;63.20
10057;DHT22;5068;51.286;7.518;2024-03-02T06:29:32;3.60;63.20
10057;DHT22;5068;51.286;7.518;2024-03-02T06:31:04;3.60;63.20
10057;DHT22;5068;51.286;7.518;2024-03-02T06:32:39;3.60;63.20
10057;DHT22;5068;51.286;7.518;2024-03-02T06:34:12;3.60;63.20
10057;DHT22;5068;51.286;7.518;2024-03-02T06:35:45;3.60;63.20
10057;DHT22;5068;51.286;7.518;2024-03-02T06:37:17;3.60;63.20
10057;DHT22;5068;51.286;7.518;2024-03-02T06:38:51;3.60;63.10
10057;DHT22;5068;51.286;7.518;2024-03-02T06:40:23;3.60;63.20
10057;DHT22;5068;51.286;7.518;2024-03-02T06:41:56;3.60;63.20
10057;DHT22;5068;51.286;7.518;2024-03-02T06:43:29;3.60;63.20
10057;DHT22;5068;51.286;7.518;2024-03-02T06:45:03;3.60;63.20
10057;DHT22;5068;51.286;7.518;2024-03-02T06:46:36;3.60;63.20
10057;DHT22;5068;51.286;7.518;2024-03-02T06:48:10;3.60;63.20
10057;DHT22;5068;51.286;7.518;2024-03-02T06:49:43;3.60;63.20
10057;DHT22;5068;51.286;7.518;2024-03-02T06:51:16;3.50;63.10
10057;DHT22;5068;51.286;7.518;2024-03-02T06:52:49;3.60;63.30
10057;DHT22;5068;51.286;7.518;2024-03-02T06:54:22;3.60;63.30
10057;DHT22;5068;51.286;7.518;2024-03-02T06:55:55;3.50;63.30
10057;DHT22;5068;51.286;7.518;2024-03-02T06:57:28;3.50;63.40
10057;DHT22;5068;51.286;7.518;2024-03-02T06:59:00;3.60;63.60
10057;DHT22;5068;51.286;7.518;2024-03-02T07:00:33;3.60;63.60
10057;DHT22;5068;51.286;7.518;2024-03-02T07:02:06;3.50;63.60
10057;DHT22;5068;51.286;7.518;2024-03-02T07:03:41;3.60;63.80
10057;DHT22;5068;51.286;7.518;2024-03-02T07:05:14;3.50;63.90
10057;DHT22;5068;51.286;7.518;2024-03-02T07:06:47;3.60;64.20
10057;DHT22;5068;51.286;7.518;2024-03-02T07:08:20;3.60;64.30
10057;DHT22;5068;51.286;7.518;2024-03-02T07:09:53;3.60;64.30
10057;DHT22;5068;51.286;7.518;2024-03-02T07:11:25;3.60;64.40
10057;DHT22;5068;51.286;7.518;2024-03-02T07:12:59;3.60;64.40
10057;DHT22;5068;51.286;7.518;2024-03-02T07:14:31;3.60;64.50
10057;DHT22;5068;51.286;7.518;2024-03-02T07:16:23;3.70;64.70
10057;DHT22;5068;51.286;7.518;2024-03-02T07:18:05;3.70;64.80
10057;DHT22;5068;51.286;7.518;2024-03-02T07:19:39;3.70;64.90
10057;DHT22;5068;51.286;7.518;2024-03-02T07:21:13;3.80;65.10
10057;DHT22;5068;51.286;7.518;2024-03-02T07:22:45;3.80;65.00
10057;DHT22;5068;51.286;7.518;2024-03-02T07:24:19;3.80;65.00
10057;DHT22;5068;51.286;7.518;2024-03-02T07:25:51;3.80;64.90
10057;DHT22;5068;51.286;7.518;2024-03-02T07:27:30;3.80;64.80
10057;DHT22;5068;51.286;7.518;2024-03-02T07:29:04;3.90;64.90
10057;DHT22;5068;51.286;7.518;2024-03-02T07:30:36;3.90;64.80
10057;DHT22;5068;51.286;7.518;2024-03-02T07:32:10;3.90;64.70
10057;DHT22;5068;51.286;7.518;2024-03-02T07:33:44;4.00;64.70
10057;DHT22;5068;51.286;7.518;2024-03-02T07:35:19;4.00;64.70
10057;DHT22;5068;51.286;7.518;2024-03-02T07:36:53;4.00;64.70
10057;DHT22;5068;51.286;7.518;2024-03-02T07:38:27;4.10;64.80
10057;DHT22;5068;51.286;7.518;2024-03-02T07:40:00;4.10;65.10
10057;DHT22;5068;51.286;7.518;2024-03-02T07:41:33;4.10;65.30
10057;DHT22;5068;51.286;7.518;2024-03-02T07:43:06;4.10;65.30
10057;DHT22;5068;51.286;7.518;2024-03-02T07:44:39;4.10;65.40
10057;DHT22;5068;51.286;7.518;2024-03-02T07:46:13;4.20;65.60
10057;DHT22;5068;51.286;7.518;2024-03-02T07:47:48;4.30;65.70
10057;DHT22;5068;51.286;7.518;2024-03-02T07:49:22;4.30;65.70
10057;DHT22;5068;51.286;7.518;2024-03-02T07:50:57;4.40;65.90
10057;DHT22;5068;51.286;7.518;2024-03-02T07:52:34;4.40;65.80
10057;DHT22;5068;51.286;7.518;2024-03-02T07:54:06;4.50;65.70
10057;DHT22;5068;51.286;7.518;2024-03-02T07:55:40;4.50;65.60
10057;DHT22;5068;51.286;7.518;2024-03-02T07:57:13;4.50;65.60
10057;DHT22;5068;51.286;7.518;2024-03-02T07:58:47;4.60;65.40
10057;DHT22;5068;51.286;7.518;2024-03-02T08:00:22;4.70;65.40
10057;DHT22;5068;51.286;7.518;2024-03-02T08:01:55;4.80;65.50
10057;DHT22;5068;51.286;7.518;2024-03-02T08:03:29;4.80;65.30
10057;DHT22;5068;51.286;7.518;2024-03-02T08:05:04;4.80;65.30
10057;DHT22;5068;51.286;7.518;2024-03-02T08:06:40;5.00;65.20
10057;DHT22;5068;51.286;7.518;2024-03-02T08:08:12;5.10;65.20
10057;DHT22;5068;51.286;7.518;2024-03-02T08:09:46;5.10;65.00
10057;DHT22;5068;51.286;7.518;2024-03-02T08:11:18;5.30;64.90
10057;DHT22;5068;51.286;7.518;2024-03-02T08:12:52;5.30;65.30
10057;DHT22;5068;51.286;7.518;2024-03-02T08:14:26;5.40;63.20
10057;DHT22;5068;51.286;7.518;2024-03-02T08:15:58;5.50;63.20
10057;DHT22;5068;51.286;7.518;2024-03-02T08:17:32;5.60;63.10
10057;DHT22;5068;51.286;7.518;2024-03-02T08:19:09;5.70;63.00
10057;DHT22;5068;51.286;7.518;2024-03-02T08:20:43;5.80;62.90
10057;DHT22;5068;51.286;7.518;2024-03-02T08:22:18;5.90;62.70
10057;DHT22;5068;51.286;7.518;2024-03-02T08:23:51;6.00;62.50
10057;DHT22;5068;51.286;7.518;2024-03-02T08:25:24;6.10;62.20
10057;DHT22;5068;51.286;7.518;2024-03-02T08:26:58;6.20;61.90
10057;DHT22;5068;51.286;7.518;2024-03-02T08:28:31;6.30;61.70
10057;DHT22;5068;51.286;7.518;2024-03-02T08:30:06;6.40;61.30
10057;DHT22;5068;51.286;7.518;2024-03-02T08:31:40;6.50;61.10
10057;DHT22;5068;51.286;7.518;2024-03-02T08:33:13;6.60;60.90
10057;DHT22;5068;51.286;7.518;2024-03-02T08:34:46;6.70;60.70
10057;DHT22;5068;51.286;7.518;2024-03-02T08:36:19;6.70;60.40
10057;DHT22;5068;51.286;7.518;2024-03-02T08:37:53;6.90;60.20
10057;DHT22;5068;51.286;7.518;2024-03-02T08:39:27;7.00;59.80
10057;DHT22;5068;51.286;7.518;2024-03-02T08:41:00;7.00;59.60
10057;DHT22;5068;51.286;7.518;2024-03-02T08:42:33;7.10;59.70
10057;DHT22;5068;51.286;7.518;2024-03-02T08:44:06;7.20;59.50
10057;DHT22;5068;51.286;7.518;2024-03-02T08:45:40;7.30;59.30
10057;DHT22;5068;51.286;7.518;2024-03-02T08:47:12;7.40;59.20
10057;DHT22;5068;51.286;7.518;2024-03-02T08:48:46;7.50;59.10
10057;DHT22;5068;51.286;7.518;2024-03-02T08:50:18;7.60;58.80
10057;DHT22;5068;51.286;7.518;2024-03-02T08:52:01;7.60;58.50
10057;DHT22;5068;51.286;7.518;2024-03-02T08:53:42;7.70;58.40
10057;DHT22;5068;51.286;7.518;2024-03-02T08:55:16;7.80;58.10
10057;DHT22;5068;51.286;7.518;2024-03-02T08:56:48;7.90;58.10
10057;DHT22;5068;51.286;7.518;2024-03-02T08:58:23;8.00;58.10
10057;DHT22;5068;51.286;7.518;2024-03-02T08:59:55;8.00;58.10
10057;DHT22;5068;51.286;7.518;2024-03-02T09:01:28;8.20;58.00
10057;DHT22;5068;51.286;7.518;2024-03-02T09:03:02;8.30;57.80
10057;DHT22;5068;51.286;7.518;2024-03-02T09:04:35;8.30;57.70
10057;DHT22;5068;51.286;7.518;2024-03-02T09:06:09;8.40;57.70
10057;DHT22;5068;51.286;7.518;2024-03-02T09:07:42;8.50;57.50
10057;DHT22;5068;51.286;7.518;2024-03-02T09:09:17;8.60;57.20
10057;DHT22;5068;51.286;7.518;2024-03-02T09:10:49;8.60;56.90
10057;DHT22;5068;51.286;7.518;2024-03-02T09:12:23;8.70;56.90
10057;DHT22;5068;51.286;7.518;2024-03-02T09:13:55;8.80;56.80
10057;DHT22;5068;51.286;7.518;2024-03-02T09:15:29;8.80;56.70
10057;DHT22;5068;51.286;7.518;2024-03-02T09:17:04;8.90;56.60
10057;DHT22;5068;51.286;7.518;2024-03-02T09:18:38;9.00;56.40
10057;DHT22;5068;51.286;7.518;2024-03-02T09:20:11;9.10;56.20
10057;DHT22;5068;51.286;7.518;2024-03-02T09:21:46;9.10;56.10
10057;DHT22;5068;51.286;7.518;2024-03-02T09:23:18;9.20;56.00
10057;DHT22;5068;51.286;7.518;2024-03-02T09:24:53;9.30;55.90
10057;DHT22;5068;51.286;7.518;2024-03-02T09:26:25;9.40;55.80
10057;DHT22;5068;51.286;7.518;2024-03-02T09:27:59;9.40;55.70
10057;DHT22;5068;51.286;7.518;2024-03-02T09:29:32;9.60;55.70
10057;DHT22;5068;51.286;7.518;2024-03-02T09:31:06;9.60;55.60
10057;DHT22;5068;51.286;7.518;2024-03-02T09:32:38;9.70;55.40
10057;DHT22;5068;51.286;7.518;2024-03-02T09:34:12;9.80;55.30
10057;DHT22;5068;51.286;7.518;2024-03-02T09:35:46;9.80;55.20
10057;DHT22;5068;51.286;7.518;2024-03-02T09:37:20;9.90;55.00
10057;DHT22;5068;51.286;7.518;2024-03-02T09:38:52;10.00;54.90
10057;DHT22;5068;51.286;7.518;2024-03-02T09:40:27;10.10;54.80
10057;DHT22;5068;51.286;7.518;2024-03-02T09:42:01;10.20;54.60
10057;DHT22;5068;51.286;7.518;2024-03-02T09:43:35;10.30;54.60
10057;DHT22;5068;51.286;7.518;2024-03-02T09:45:09;10.30;54.10
10057;DHT22;5068;51.286;7.518;2024-03-02T09:46:44;10.40;54.50
10057;DHT22;5068;51.286;7.518;2024-03-02T09:48:21;10.50;54.20
10057;DHT22;5068;51.286;7.518;2024-03-02T09:49:55;10.60;53.90
10057;DHT22;5068;51.286;7.518;2024-03-02T09:51:27;10.60;53.70
10057;DHT22;5068;51.286;7.518;2024-03-02T09:53:01;10.70;53.40
10057;DHT22;5068;51.286;7.518;2024-03-02T09:54:34;10.80;53.10
10057;DHT22;5068;51.286;7.518;2024-03-02T09:56:09;10.90;52.90
10057;DHT22;5068;51.286;7.518;2024-03-02T09:57:41;10.90;52.70
10057;DHT22;5068;51.286;7.518;2024-03-02T09:59:14;11.00;52.70
10057;DHT22;5068;51.286;7.518;2024-03-02T10:00:49;11.10;52.60
10057;DHT22;5068;51.286;7.518;2024-03-02T10:02:22;11.10;52.10
10057;DHT22;5068;51.286;7.518;2024-03-02T10:03:59;11.20;52.10
10057;DHT22;5068;51.286;7.518;2024-03-02T10:05:32;11.20;52.00
10057;DHT22;5068;51.286;7.518;2024-03-02T10:07:13;11.30;52.20
10057;DHT22;5068;51.286;7.518;2024-03-02T10:08:46;11.30;51.60
10057;DHT22;5068;51.286;7.518;2024-03-02T10:10:21;11.50;51.80
10057;DHT22;5068;51.286;7.518;2024-03-02T10:12:03;11.50;51.50